sensor_id;sensor_type;location;lat;lon;timestamp;pressure;altitude;pressure_sealevel;temperature;humidity
62849;BME280;48941;49.516;8.286;2023-05-20T00:01:35;100671.72;;;15.36;52.34
62849;BME280;48941;49.516;8.286;2023-05-20T00:04:03;100679.78;;;15.36;52.40
62849;BME280;48941;49.516;8.286;2023-05-20T00:06:31;100672.84;;;15.33;52.70
62849;BME280;48941;49.516;8.286;2023-05-20T00:09:00;100673.72;;;15.34;52.83
62849;BME280;48941;49.516;8.286;2023-05-20T00:11:28;100672.31;;;15.30;52.87
62849;BME280;48941;49.516;8.286;2023-05-20T00:13:56;100672.59;;;15.27;53.30
62849;BME280;48941;49.516;8.286;2023-05-20T00:16:24;100677.13;;;15.26;53.24
62849;BME280;48941;49.516;8.286;2023-05-20T00:18:53;100670.03;;;15.25;53.45
62849;BME280;48941;49.516;8.286;2023-05-20T00:21:22;100673.88;;;15.23;53.16
62849;BME280;48941;49.516;8.286;2023-05-20T00:23:50;100666.84;;;15.22;53.55
62849;BME280;48941;49.516;8.286;2023-05-20T00:26:18;100669.94;;;15.17;53.92
62849;BME280;48941;49.516;8.286;2023-05-20T00:28:46;100676.91;;;15.10;53.93
62849;BME280;48941;49.516;8.286;2023-05-20T00:31:14;100669.81;;;15.09;54.35
62849;BME280;48941;49.516;8.286;2023-05-20T00:33:42;100667.28;;;15.07;54.55
62849;BME280;48941;49.516;8.286;2023-05-20T00:36:11;100674.78;;;15.04;54.54
62849;BME280;48941;49.516;8.286;2023-05-20T00:38:39;100668.00;;;15.00;54.85
62849;BME280;48941;49.516;8.286;2023-05-20T00:41:07;100667.59;;;14.94;55.26
62849;BME280;48941;49.516;8.286;2023-05-20T00:43:35;100667.34;;;14.88;55.40
62849;BME280;48941;49.516;8.286;2023-05-20T00:46:03;100669.72;;;14.81;55.67
62849;BME280;48941;49.516;8.286;2023-05-20T00:48:38;100662.13;;;14.77;55.51
62849;BME280;48941;49.516;8.286;2023-05-20T00:51:06;100667.22;;;14.70;56.00
62849;BME280;48941;49.516;8.286;2023-05-20T00:53:36;100667.81;;;14.64;56.43
62849;BME280;48941;49.516;8.286;2023-05-20T00:56:04;100665.25;;;14.62;56.67
62849;BME280;48941;49.516;8.286;2023-05-20T00:58:33;100659.16;;;14.50;56.98
62849;BME280;48941;49.516;8.286;2023-05-20T01:01:03;100660.13;;;14.40;57.45
62849;BME280;48941;49.516;8.286;2023-05-20T01:03:32;100666.63;;;14.37;57.82
62849;BME280;48941;49.516;8.286;2023-05-20T01:06:01;100657.50;;;14.30;57.58
62849;BME280;48941;49.516;8.286;2023-05-20T01:08:29;100656.78;;;14.28;58.29
62849;BME280;48941;49.516;8.286;2023-05-20T01:11:02;100655.50;;;14.22;58.69
62849;BME280;48941;49.516;8.286;2023-05-20T01:13:41;100656.19;;;14.14;58.98
62849;BME280;48941;49.516;8.286;2023-05-20T01:16:12;100654.09;;;14.08;59.28
62849;BME280;48941;49.516;8.286;2023-05-20T01:18:42;100651.97;;;14.02;59.96
62849;BME280;48941;49.516;8.286;2023-05-20T01:21:11;100657.72;;;13.98;60.35
62849;BME280;48941;49.516;8.286;2023-05-20T01:23:41;100651.94;;;13.92;60.90
62849;BME280;48941;49.516;8.286;2023-05-20T01:26:09;100649.94;;;13.85;61.13
62849;BME280;48941;49.516;8.286;2023-05-20T01:28:40;100649.66;;;13.78;61.37
62849;BME280;48941;49.516;8.286;2023-05-20T01:31:13;100654.56;;;13.73;61.79
62849;BME280;48941;49.516;8.286;2023-05-20T01:33:42;100653.41;;;13.66;62.18
62849;BME280;48941;49.516;8.286;2023-05-20T01:36:11;100651.16;;;13.61;62.80
62849;BME280;48941;49.516;8.286;2023-05-20T01:38:42;100650.88;;;13.54;62.93
62849;BME280;48941;49.516;8.286;2023-05-20T01:41:11;100649.44;;;13.50;63.12
62849;BME280;48941;49.516;8.286;2023-05-20T01:43:39;100654.09;;;13.48;63.55
62849;BME280;48941;49.516;8.286;2023-05-20T01:46:07;100651.78;;;13.44;63.45
62849;BME280;48941;49.516;8.286;2023-05-20T01:48:35;100656.31;;;13.43;63.75
62849;BME280;48941;49.516;8.286;2023-05-20T01:51:03;100654.88;;;13.39;64.28
62849;BME280;48941;49.516;8.286;2023-05-20T01:53:31;100650.91;;;13.33;64.56
62849;BME280;48941;49.516;8.286;2023-05-20T01:56:00;100648.53;;;13.30;64.59
62849;BME280;48941;49.516;8.286;2023-05-20T01:58:28;100646.91;;;13.28;64.57
62849;BME280;48941;49.516;8.286;2023-05-20T02:00:56;100656.06;;;13.25;65.27
62849;BME280;48941;49.516;8.286;2023-05-20T02:03:24;100650.81;;;13.14;65.61
62849;BME280;48941;49.516;8.286;2023-05-20T02:05:52;100657.38;;;13.10;65.87
62849;BME280;48941;49.516;8.286;2023-05-20T02:08:19;100652.31;;;13.07;66.16
62849;BME280;48941;49.516;8.286;2023-05-20T02:10:47;100653.28;;;13.06;66.34
62849;BME280;48941;49.516;8.286;2023-05-20T02:13:17;100655.41;;;13.02;66.68
62849;BME280;48941;49.516;8.286;2023-05-20T02:15:44;100660.03;;;13.00;66.63
62849;BME280;48941;49.516;8.286;2023-05-20T02:18:12;100653.97;;;12.98;67.10
62849;BME280;48941;49.516;8.286;2023-05-20T02:20:44;100651.53;;;12.95;67.09
62849;BME280;48941;49.516;8.286;2023-05-20T02:23:12;100649.00;;;12.93;67.13
62849;BME280;48941;49.516;8.286;2023-05-20T02:25:39;100649.13;;;12.92;67.26
62849;BME280;48941;49.516;8.286;2023-05-20T02:28:07;100646.00;;;12.87;67.71
62849;BME280;48941;49.516;8.286;2023-05-20T02:30:37;100647.13;;;12.84;67.84
62849;BME280;48941;49.516;8.286;2023-05-20T02:33:05;100644.47;;;12.84;68.17
62849;BME280;48941;49.516;8.286;2023-05-20T02:35:35;100643.59;;;12.84;67.94
62849;BME280;48941;49.516;8.286;2023-05-20T02:38:03;100643.88;;;12.81;68.40
62849;BME280;48941;49.516;8.286;2023-05-20T02:40:31;100639.63;;;12.78;68.47
62849;BME280;48941;49.516;8.286;2023-05-20T02:42:59;100637.81;;;12.79;69.00
62849;BME280;48941;49.516;8.286;2023-05-20T02:45:27;100629.91;;;12.77;69.08
62849;BME280;48941;49.516;8.286;2023-05-20T02:47:56;100634.66;;;12.73;69.65
62849;BME280;48941;49.516;8.286;2023-05-20T02:50:24;100631.16;;;12.73;69.39
62849;BME280;48941;49.516;8.286;2023-05-20T02:52:52;100629.44;;;12.72;70.47
62849;BME280;48941;49.516;8.286;2023-05-20T02:55:20;100626.78;;;12.72;70.41
62849;BME280;48941;49.516;8.286;2023-05-20T02:57:49;100626.06;;;12.70;71.00
62849;BME280;48941;49.516;8.286;2023-05-20T03:00:17;100621.00;;;12.67;70.96
62849;BME280;48941;49.516;8.286;2023-05-20T03:02:45;100621.94;;;12.66;71.32
62849;BME280;48941;49.516;8.286;2023-05-20T03:05:14;100610.41;;;12.65;71.63
62849;BME280;48941;49.516;8.286;2023-05-20T03:07:42;100614.66;;;12.68;71.07
62849;BME280;48941;49.516;8.286;2023-05-20T03:10:11;100611.84;;;12.69;71.10
62849;BME280;48941;49.516;8.286;2023-05-20T03:12:39;100617.19;;;12.69;71.44
62849;BME280;48941;49.516;8.286;2023-05-20T03:15:07;100613.69;;;12.69;71.58
62849;BME280;48941;49.516;8.286;2023-05-20T03:17:36;100609.06;;;12.71;71.43
62849;BME280;48941;49.516;8.286;2023-05-20T03:20:04;100615.38;;;12.70;71.67
62849;BME280;48941;49.516;8.286;2023-05-20T03:22:34;100606.63;;;12.68;71.83
62849;BME280;48941;49.516;8.286;2023-05-20T03:25:02;100620.28;;;12.65;72.12
62849;BME280;48941;49.516;8.286;2023-05-20T03:27:30;100614.81;;;12.66;72.39
62849;BME280;48941;49.516;8.286;2023-05-20T03:30:00;100621.22;;;12.64;72.02
62849;BME280;48941;49.516;8.286;2023-05-20T03:32:27;100613.75;;;12.58;72.47
62849;BME280;48941;49.516;8.286;2023-05-20T03:34:55;100619.09;;;12.58;72.68
62849;BME280;48941;49.516;8.286;2023-05-20T03:37:23;100613.88;;;12.56;72.71
62849;BME280;48941;49.516;8.286;2023-05-20T03:39:53;100614.75;;;12.57;72.91
62849;BME280;48941;49.516;8.286;2023-05-20T03:42:20;100610.47;;;12.54;73.50
62849;BME280;48941;49.516;8.286;2023-05-20T03:44:48;100608.91;;;12.51;73.38
62849;BME280;48941;49.516;8.286;2023-05-20T03:47:16;100615.38;;;12.49;74.12
62849;BME280;48941;49.516;8.286;2023-05-20T03:49:44;100616.22;;;12.49;73.88
62849;BME280;48941;49.516;8.286;2023-05-20T03:52:12;100621.31;;;12.52;73.80
62849;BME280;48941;49.516;8.286;2023-05-20T03:54:39;100619.50;;;12.53;73.92
62849;BME280;48941;49.516;8.286;2023-05-20T03:57:09;100622.75;;;12.57;73.81
62849;BME280;48941;49.516;8.286;2023-05-20T03:59:37;100618.25;;;12.57;74.36
62849;BME280;48941;49.516;8.286;2023-05-20T04:02:05;100618.97;;;12.59;74.12
62849;BME280;48941;49.516;8.286;2023-05-20T04:04:32;100617.00;;;12.61;74.00
62849;BME280;48941;49.516;8.286;2023-05-20T04:07:00;100617.72;;;12.63;74.21
62849;BME280;48941;49.516;8.286;2023-05-20T04:09:28;100622.81;;;12.66;74.15
62849;BME280;48941;49.516;8.286;2023-05-20T04:11:56;100621.69;;;12.69;74.52
62849;BME280;48941;49.516;8.286;2023-05-20T04:14:26;100616.06;;;12.72;74.47
62849;BME280;48941;49.516;8.286;2023-05-20T04:16:54;100613.41;;;12.72;74.60
62849;BME280;48941;49.516;8.286;2023-05-20T04:19:22;100615.00;;;12.74;74.33
62849;BME280;48941;49.516;8.286;2023-05-20T04:21:54;100619.94;;;12.79;74.77
62849;BME280;48941;49.516;8.286;2023-05-20T04:24:22;100627.94;;;12.79;74.45
62849;BME280;48941;49.516;8.286;2023-05-20T04:26:51;100627.00;;;12.80;74.54
62849;BME280;48941;49.516;8.286;2023-05-20T04:29:19;100629.38;;;12.83;74.65
62849;BME280;48941;49.516;8.286;2023-05-20T04:31:48;100629.84;;;12.88;74.78
62849;BME280;48941;49.516;8.286;2023-05-20T04:34:16;100633.94;;;12.92;74.79
62849;BME280;48941;49.516;8.286;2023-05-20T04:36:45;100627.72;;;12.92;74.76
62849;BME280;48941;49.516;8.286;2023-05-20T04:39:14;100622.13;;;12.95;75.12
62849;BME280;48941;49.516;8.286;2023-05-20T04:41:44;100619.91;;;13.00;75.20
62849;BME280;48941;49.516;8.286;2023-05-20T04:44:13;100612.47;;;13.04;74.73
62849;BME280;48941;49.516;8.286;2023-05-20T04:46:41;100613.88;;;13.08;74.67
62849;BME280;48941;49.516;8.286;2023-05-20T04:49:11;100614.59;;;13.10;75.23
62849;BME280;48941;49.516;8.286;2023-05-20T04:51:39;100619.56;;;13.14;74.60
62849;BME280;48941;49.516;8.286;2023-05-20T04:54:07;100612.13;;;13.18;74.90
62849;BME280;48941;49.516;8.286;2023-05-20T04:56:35;100613.38;;;13.24;74.76
62849;BME280;48941;49.516;8.286;2023-05-20T04:59:03;100615.94;;;13.25;74.78
62849;BME280;48941;49.516;8.286;2023-05-20T05:01:31;100610.31;;;13.28;74.52
62849;BME280;48941;49.516;8.286;2023-05-20T05:03:59;100609.94;;;13.33;74.32
62849;BME280;48941;49.516;8.286;2023-05-20T05:06:28;100607.97;;;13.35;74.52
62849;BME280;48941;49.516;8.286;2023-05-20T05:08:56;100601.38;;;13.39;74.83
62849;BME280;48941;49.516;8.286;2023-05-20T05:11:24;100604.75;;;13.41;74.33
62849;BME280;48941;49.516;8.286;2023-05-20T05:13:53;100606.06;;;13.47;74.29
62849;BME280;48941;49.516;8.286;2023-05-20T05:16:21;100600.41;;;13.50;74.58
62849;BME280;48941;49.516;8.286;2023-05-20T05:18:49;100593.97;;;13.52;74.54
62849;BME280;48941;49.516;8.286;2023-05-20T05:21:17;100596.22;;;13.57;73.95
62849;BME280;48941;49.516;8.286;2023-05-20T05:23:46;100599.47;;;13.61;74.06
62849;BME280;48941;49.516;8.286;2023-05-20T05:26:14;100594.81;;;13.63;74.31
62849;BME280;48941;49.516;8.286;2023-05-20T05:28:42;100587.94;;;13.70;73.87
62849;BME280;48941;49.516;8.286;2023-05-20T05:31:10;100585.09;;;13.71;73.49
62849;BME280;48941;49.516;8.286;2023-05-20T05:33:38;100589.34;;;13.74;73.91
62849;BME280;48941;49.516;8.286;2023-05-20T05:36:06;100591.88;;;13.75;73.75
62849;BME280;48941;49.516;8.286;2023-05-20T05:38:34;100581.59;;;13.81;73.73
62849;BME280;48941;49.516;8.286;2023-05-20T05:41:04;100578.94;;;13.81;73.56
62849;BME280;48941;49.516;8.286;2023-05-20T05:43:32;100577.09;;;13.81;73.96
62849;BME280;48941;49.516;8.286;2023-05-20T05:46:00;100583.28;;;13.82;73.77
62849;BME280;48941;49.516;8.286;2023-05-20T05:48:28;100581.31;;;13.84;74.13
62849;BME280;48941;49.516;8.286;2023-05-20T05:50:56;100578.94;;;13.90;74.07
62849;BME280;48941;49.516;8.286;2023-05-20T05:53:24;100572.19;;;13.96;73.88
62849;BME280;48941;49.516;8.286;2023-05-20T05:55:52;100580.50;;;14.03;73.95
62849;BME280;48941;49.516;8.286;2023-05-20T05:58:21;100565.41;;;14.11;73.72
62849;BME280;48941;49.516;8.286;2023-05-20T06:00:50;100568.78;;;14.13;73.83
62849;BME280;48941;49.516;8.286;2023-05-20T06:03:18;100574.56;;;14.19;73.37
62849;BME280;48941;49.516;8.286;2023-05-20T06:05:46;100573.16;;;14.24;73.34
62849;BME280;48941;49.516;8.286;2023-05-20T06:08:14;100572.59;;;14.30;73.05
62849;BME280;48941;49.516;8.286;2023-05-20T06:10:46;100580.19;;;14.35;72.63
62849;BME280;48941;49.516;8.286;2023-05-20T06:13:14;100574.25;;;14.41;72.66
62849;BME280;48941;49.516;8.286;2023-05-20T06:15:43;100573.69;;;14.47;72.85
62849;BME280;48941;49.516;8.286;2023-05-20T06:18:12;100573.97;;;14.54;73.14
62849;BME280;48941;49.516;8.286;2023-05-20T06:20:40;100570.44;;;14.63;72.35
62849;BME280;48941;49.516;8.286;2023-05-20T06:23:08;100565.19;;;14.71;72.47
62849;BME280;48941;49.516;8.286;2023-05-20T06:25:36;100569.69;;;14.81;72.34
62849;BME280;48941;49.516;8.286;2023-05-20T06:28:04;100569.66;;;14.90;71.95
62849;BME280;48941;49.516;8.286;2023-05-20T06:30:32;100555.53;;;14.98;71.85
62849;BME280;48941;49.516;8.286;2023-05-20T06:33:01;100556.19;;;15.10;71.08
62849;BME280;48941;49.516;8.286;2023-05-20T06:35:29;100562.63;;;15.17;70.78
62849;BME280;48941;49.516;8.286;2023-05-20T06:37:57;100561.19;;;15.23;70.49
62849;BME280;48941;49.516;8.286;2023-05-20T06:40:26;100563.59;;;15.26;70.34
62849;BME280;48941;49.516;8.286;2023-05-20T06:42:55;100560.13;;;15.33;70.14
62849;BME280;48941;49.516;8.286;2023-05-20T06:45:23;100555.84;;;15.41;70.05
62849;BME280;48941;49.516;8.286;2023-05-20T06:47:50;100554.41;;;15.46;69.75
62849;BME280;48941;49.516;8.286;2023-05-20T06:50:21;100554.09;;;15.49;69.27
62849;BME280;48941;49.516;8.286;2023-05-20T06:52:50;100551.81;;;15.54;69.32
62849;BME280;48941;49.516;8.286;2023-05-20T06:55:18;100552.22;;;15.60;69.03
62849;BME280;48941;49.516;8.286;2023-05-20T06:57:46;100555.13;;;15.66;68.96
62849;BME280;48941;49.516;8.286;2023-05-20T07:00:14;100549.63;;;15.68;69.11
62849;BME280;48941;49.516;8.286;2023-05-20T07:02:43;100551.72;;;15.74;68.84
62849;BME280;48941;49.516;8.286;2023-05-20T07:05:11;100546.22;;;15.76;68.31
62849;BME280;48941;49.516;8.286;2023-05-20T07:07:40;100544.28;;;15.86;68.95
62849;BME280;48941;49.516;8.286;2023-05-20T07:10:08;100543.66;;;15.92;69.30
62849;BME280;48941;49.516;8.286;2023-05-20T07:12:36;100534.16;;;15.98;69.35
62849;BME280;48941;49.516;8.286;2023-05-20T07:15:05;100531.16;;;16.01;69.12
62849;BME280;48941;49.516;8.286;2023-05-20T07:17:33;100524.47;;;16.05;69.08
62849;BME280;48941;49.516;8.286;2023-05-20T07:20:01;100525.84;;;16.09;68.32
62849;BME280;48941;49.516;8.286;2023-05-20T07:22:30;100537.28;;;16.11;68.25
62849;BME280;48941;49.516;8.286;2023-05-20T07:24:59;100537.41;;;16.09;67.68
62849;BME280;48941;49.516;8.286;2023-05-20T07:27:28;100528.53;;;16.09;68.07
62849;BME280;48941;49.516;8.286;2023-05-20T07:29:56;100528.66;;;16.07;68.02
62849;BME280;48941;49.516;8.286;2023-05-20T07:32:24;100524.31;;;16.06;67.89
62849;BME280;48941;49.516;8.286;2023-05-20T07:34:52;100524.00;;;16.09;67.77
62849;BME280;48941;49.516;8.286;2023-05-20T07:37:20;100526.00;;;16.07;67.58
62849;BME280;48941;49.516;8.286;2023-05-20T07:39:48;100527.84;;;16.07;67.77
62849;BME280;48941;49.516;8.286;2023-05-20T07:42:17;100526.00;;;16.07;67.98
62849;BME280;48941;49.516;8.286;2023-05-20T07:44:46;100514.66;;;16.13;67.63
62849;BME280;48941;49.516;8.286;2023-05-20T07:47:14;100518.38;;;16.21;68.00
62849;BME280;48941;49.516;8.286;2023-05-20T07:49:42;100523.13;;;16.27;68.22
62849;BME280;48941;49.516;8.286;2023-05-20T07:52:12;100522.81;;;16.30;67.66
62849;BME280;48941;49.516;8.286;2023-05-20T07:54:40;100513.59;;;16.32;67.04
62849;BME280;48941;49.516;8.286;2023-05-20T07:57:08;100528.25;;;16.38;66.50
62849;BME280;48941;49.516;8.286;2023-05-20T07:59:37;100518.03;;;16.42;66.55
62849;BME280;48941;49.516;8.286;2023-05-20T08:02:05;100522.78;;;16.48;66.63
62849;BME280;48941;49.516;8.286;2023-05-20T08:04:34;100511.91;;;16.58;66.37
62849;BME280;48941;49.516;8.286;2023-05-20T08:07:02;100507.47;;;16.75;65.70
62849;BME280;48941;49.516;8.286;2023-05-20T08:09:30;100509.97;;;17.02;64.68
62849;BME280;48941;49.516;8.286;2023-05-20T08:11:58;100507.88;;;17.30;64.67
62849;BME280;48941;49.516;8.286;2023-05-20T08:14:26;100504.41;;;17.55;63.46
62849;BME280;48941;49.516;8.286;2023-05-20T08:16:56;100504.94;;;17.83;63.05
62849;BME280;48941;49.516;8.286;2023-05-20T08:19:24;100507.66;;;17.99;61.53
62849;BME280;48941;49.516;8.286;2023-05-20T08:21:52;100510.19;;;18.25;61.15
62849;BME280;48941;49.516;8.286;2023-05-20T08:24:20;100503.06;;;18.41;60.39
62849;BME280;48941;49.516;8.286;2023-05-20T08:26:48;100502.19;;;18.57;59.09
62849;BME280;48941;49.516;8.286;2023-05-20T08:29:16;100499.00;;;18.61;59.08
62849;BME280;48941;49.516;8.286;2023-05-20T08:31:44;100505.41;;;18.60;59.46
62849;BME280;48941;49.516;8.286;2023-05-20T08:34:13;100499.50;;;18.57;58.50
62849;BME280;48941;49.516;8.286;2023-05-20T08:36:42;100501.31;;;18.73;58.95
62849;BME280;48941;49.516;8.286;2023-05-20T08:39:10;100501.69;;;18.69;58.63
62849;BME280;48941;49.516;8.286;2023-05-20T08:41:38;100508.06;;;18.68;58.88
62849;BME280;48941;49.516;8.286;2023-05-20T08:44:07;100512.47;;;18.69;58.50
62849;BME280;48941;49.516;8.286;2023-05-20T08:46:37;100507.34;;;18.91;58.38
62849;BME280;48941;49.516;8.286;2023-05-20T08:49:06;100509.34;;;19.05;57.29
62849;BME280;48941;49.516;8.286;2023-05-20T08:51:36;100507.31;;;19.07;56.65
62849;BME280;48941;49.516;8.286;2023-05-20T08:54:05;100493.59;;;19.09;57.43
62849;BME280;48941;49.516;8.286;2023-05-20T08:56:35;100502.75;;;19.08;57.39
62849;BME280;48941;49.516;8.286;2023-05-20T08:59:05;100493.19;;;18.97;57.65
62849;BME280;48941;49.516;8.286;2023-05-20T09:01:36;100486.22;;;19.03;57.81
62849;BME280;48941;49.516;8.286;2023-05-20T09:04:07;100483.34;;;19.04;58.02
62849;BME280;48941;49.516;8.286;2023-05-20T09:06:43;100480.44;;;19.14;58.26
62849;BME280;48941;49.516;8.286;2023-05-20T09:09:12;100470.69;;;19.36;57.89
62849;BME280;48941;49.516;8.286;2023-05-20T09:11:41;100472.22;;;19.62;57.45
62849;BME280;48941;49.516;8.286;2023-05-20T09:14:09;100473.75;;;19.87;56.22
62849;BME280;48941;49.516;8.286;2023-05-20T09:16:38;100468.84;;;20.06;54.99
62849;BME280;48941;49.516;8.286;2023-05-20T09:19:07;100466.28;;;20.27;54.44
62849;BME280;48941;49.516;8.286;2023-05-20T09:21:35;100469.44;;;20.46;53.85
62849;BME280;48941;49.516;8.286;2023-05-20T09:24:06;100472.84;;;20.63;52.67
62849;BME280;48941;49.516;8.286;2023-05-20T09:26:34;100458.75;;;20.82;52.47
62849;BME280;48941;49.516;8.286;2023-05-20T09:29:03;100463.03;;;20.92;52.53
62849;BME280;48941;49.516;8.286;2023-05-20T09:31:31;100465.34;;;21.09;52.22
62849;BME280;48941;49.516;8.286;2023-05-20T09:34:01;100463.88;;;21.28;51.98
62849;BME280;48941;49.516;8.286;2023-05-20T09:36:30;100463.38;;;21.40;51.38
62849;BME280;48941;49.516;8.286;2023-05-20T09:39:02;100461.28;;;21.57;51.21
62849;BME280;48941;49.516;8.286;2023-05-20T09:41:33;100462.50;;;21.76;50.63
62849;BME280;48941;49.516;8.286;2023-05-20T09:44:04;100466.63;;;21.93;50.94
62849;BME280;48941;49.516;8.286;2023-05-20T09:46:34;100459.44;;;22.07;50.08
62849;BME280;48941;49.516;8.286;2023-05-20T09:49:03;100461.41;;;22.20;49.05
62849;BME280;48941;49.516;8.286;2023-05-20T09:51:32;100459.22;;;22.30;48.84
62849;BME280;48941;49.516;8.286;2023-05-20T09:54:01;100455.72;;;22.36;48.94
62849;BME280;48941;49.516;8.286;2023-05-20T09:56:33;100443.41;;;22.40;48.53
62849;BME280;48941;49.516;8.286;2023-05-20T09:59:04;100449.94;;;22.46;48.94
62849;BME280;48941;49.516;8.286;2023-05-20T10:01:32;100448.31;;;22.52;48.35
62849;BME280;48941;49.516;8.286;2023-05-20T10:04:00;100444.34;;;22.54;48.24
62849;BME280;48941;49.516;8.286;2023-05-20T10:06:45;100439.06;;;22.46;49.23
62849;BME280;48941;49.516;8.286;2023-05-20T10:09:23;100431.72;;;22.40;49.02
62849;BME280;48941;49.516;8.286;2023-05-20T10:12:06;100426.31;;;22.40;49.38
62849;BME280;48941;49.516;8.286;2023-05-20T10:14:48;100426.56;;;22.45;49.39
62849;BME280;48941;49.516;8.286;2023-05-20T10:17:23;100425.59;;;22.66;47.72
62849;BME280;48941;49.516;8.286;2023-05-20T10:19:56;100426.06;;;22.70;47.26
62849;BME280;48941;49.516;8.286;2023-05-20T10:22:28;100423.41;;;22.83;47.26
62849;BME280;48941;49.516;8.286;2023-05-20T10:24:58;100416.38;;;23.02;46.49
62849;BME280;48941;49.516;8.286;2023-05-20T10:27:28;100414.34;;;23.24;46.17
62849;BME280;48941;49.516;8.286;2023-05-20T10:29:56;100403.28;;;23.32;45.85
62849;BME280;48941;49.516;8.286;2023-05-20T10:32:25;100413.16;;;23.53;45.05
62849;BME280;48941;49.516;8.286;2023-05-20T10:34:58;100410.66;;;23.65;45.04
62849;BME280;48941;49.516;8.286;2023-05-20T10:37:28;100404.22;;;23.79;43.93
62849;BME280;48941;49.516;8.286;2023-05-20T10:40:05;100403.16;;;23.80;44.06
62849;BME280;48941;49.516;8.286;2023-05-20T10:42:35;100402.09;;;23.55;43.04
62849;BME280;48941;49.516;8.286;2023-05-20T10:45:03;100407.06;;;23.38;43.78
62849;BME280;48941;49.516;8.286;2023-05-20T10:47:32;100402.84;;;23.15;44.55
62849;BME280;48941;49.516;8.286;2023-05-20T10:50:00;100402.66;;;23.30;44.86
62849;BME280;48941;49.516;8.286;2023-05-20T10:52:32;100395.81;;;23.41;44.49
62849;BME280;48941;49.516;8.286;2023-05-20T10:55:00;100394.75;;;23.55;44.88
62849;BME280;48941;49.516;8.286;2023-05-20T10:57:29;100388.28;;;23.70;43.73
62849;BME280;48941;49.516;8.286;2023-05-20T10:59:59;100384.31;;;23.92;43.10
62849;BME280;48941;49.516;8.286;2023-05-20T11:02:27;100386.16;;;24.12;43.10
62849;BME280;48941;49.516;8.286;2023-05-20T11:04:56;100386.13;;;24.32;43.02
62849;BME280;48941;49.516;8.286;2023-05-20T11:07:25;100384.44;;;24.37;42.92
62849;BME280;48941;49.516;8.286;2023-05-20T11:09:54;100382.72;;;24.56;42.19
62849;BME280;48941;49.516;8.286;2023-05-20T11:12:22;100377.88;;;24.65;42.05
62849;BME280;48941;49.516;8.286;2023-05-20T11:14:51;100372.84;;;24.69;41.75
62849;BME280;48941;49.516;8.286;2023-05-20T11:17:20;100373.28;;;24.65;41.18
62849;BME280;48941;49.516;8.286;2023-05-20T11:19:49;100377.88;;;24.65;41.11
62849;BME280;48941;49.516;8.286;2023-05-20T11:22:17;100370.59;;;24.45;41.44
62849;BME280;48941;49.516;8.286;2023-05-20T11:24:45;100360.78;;;24.44;41.96
62849;BME280;48941;49.516;8.286;2023-05-20T11:27:13;100363.66;;;24.56;42.25
62849;BME280;48941;49.516;8.286;2023-05-20T11:29:41;100353.56;;;24.70;40.94
62849;BME280;48941;49.516;8.286;2023-05-20T11:32:09;100352.31;;;24.73;41.61
62849;BME280;48941;49.516;8.286;2023-05-20T11:34:38;100364.69;;;24.69;40.95
62849;BME280;48941;49.516;8.286;2023-05-20T11:37:06;100364.06;;;24.60;41.26
62849;BME280;48941;49.516;8.286;2023-05-20T11:39:36;100354.06;;;24.54;41.55
62849;BME280;48941;49.516;8.286;2023-05-20T11:42:04;100353.81;;;24.62;40.74
62849;BME280;48941;49.516;8.286;2023-05-20T11:44:32;100355.91;;;24.67;40.90
62849;BME280;48941;49.516;8.286;2023-05-20T11:47:01;100356.47;;;24.75;41.21
62849;BME280;48941;49.516;8.286;2023-05-20T11:49:29;100353.50;;;24.83;40.82
62849;BME280;48941;49.516;8.286;2023-05-20T11:52:08;100347.00;;;24.84;40.65
62849;BME280;48941;49.516;8.286;2023-05-20T11:54:37;100351.28;;;24.67;40.89
62849;BME280;48941;49.516;8.286;2023-05-20T11:57:05;100345.84;;;24.67;41.10
62849;BME280;48941;49.516;8.286;2023-05-20T11:59:33;100347.53;;;24.48;40.81
62849;BME280;48941;49.516;8.286;2023-05-20T12:02:02;100348.47;;;24.29;41.42
62849;BME280;48941;49.516;8.286;2023-05-20T12:04:29;100341.19;;;24.09;41.33
62849;BME280;48941;49.516;8.286;2023-05-20T12:06:57;100341.22;;;23.89;41.62
62849;BME280;48941;49.516;8.286;2023-05-20T12:09:27;100331.59;;;23.73;42.63
62849;BME280;48941;49.516;8.286;2023-05-20T12:11:54;100330.34;;;23.56;42.66
62849;BME280;48941;49.516;8.286;2023-05-20T12:14:22;100332.44;;;23.47;42.96
62849;BME280;48941;49.516;8.286;2023-05-20T12:16:50;100335.78;;;23.36;43.00
62849;BME280;48941;49.516;8.286;2023-05-20T12:19:19;100335.78;;;23.29;42.69
62849;BME280;48941;49.516;8.286;2023-05-20T12:21:47;100325.31;;;23.26;42.88
62849;BME280;48941;49.516;8.286;2023-05-20T12:24:15;100321.78;;;23.25;43.67
62849;BME280;48941;49.516;8.286;2023-05-20T12:26:44;100315.91;;;23.22;43.62
62849;BME280;48941;49.516;8.286;2023-05-20T12:29:11;100309.66;;;23.21;43.90
62849;BME280;48941;49.516;8.286;2023-05-20T12:31:39;100314.03;;;23.09;43.78
62849;BME280;48941;49.516;8.286;2023-05-20T12:34:08;100318.78;;;23.00;44.49
62849;BME280;48941;49.516;8.286;2023-05-20T12:36:36;100324.84;;;22.96;45.23
62849;BME280;48941;49.516;8.286;2023-05-20T12:39:04;100324.41;;;22.92;45.31
62849;BME280;48941;49.516;8.286;2023-05-20T12:41:32;100321.06;;;22.83;45.40
62849;BME280;48941;49.516;8.286;2023-05-20T12:44:02;100320.19;;;22.76;45.68
62849;BME280;48941;49.516;8.286;2023-05-20T12:46:29;100318.50;;;22.68;45.58
62849;BME280;48941;49.516;8.286;2023-05-20T12:48:57;100313.47;;;22.59;45.63
62849;BME280;48941;49.516;8.286;2023-05-20T12:51:25;100324.34;;;22.59;46.08
62849;BME280;48941;49.516;8.286;2023-05-20T12:53:53;100314.69;;;22.56;45.51
62849;BME280;48941;49.516;8.286;2023-05-20T12:56:21;100310.13;;;22.57;45.87
62849;BME280;48941;49.516;8.286;2023-05-20T12:58:50;100309.53;;;22.68;45.89